sensor_id;sensor_type;location;lat;lon;timestamp;P1;durP1;ratioP1;P2;durP2;ratioP2
68583;SDS011;55557;49.220;11.150;2023-06-14T00:01:44;5.63;;;3.53;;
68583;SDS011;55557;49.220;11.150;2023-06-14T00:04:13;9.17;;;4.00;;
68583;SDS011;55557;49.220;11.150;2023-06-14T00:06:43;5.53;;;3.70;;
68583;SDS011;55557;49.220;11.150;2023-06-14T00:09:15;8.00;;;4.10;;
68583;SDS011;55557;49.220;11.150;2023-06-14T00:11:44;5.73;;;4.23;;
68583;SDS011;55557;49.220;11.150;2023-06-14T00:14:10;4.20;;;3.80;;
68583;SDS011;55557;49.220;11.150;2023-06-14T00:16:36;6.63;;;4.30;;
68583;SDS011;55557;49.220;11.150;2023-06-14T00:19:04;4.57;;;3.90;;
68583;SDS011;55557;49.220;11.150;2023-06-14T00:21:30;4.80;;;3.60;;
68583;SDS011;55557;49.220;11.150;2023-06-14T00:23:57;4.87;;;3.53;;
68583;SDS011;55557;49.220;11.150;2023-06-14T00:26:23;5.30;;;3.70;;
68583;SDS011;55557;49.220;11.150;2023-06-14T00:28:51;4.10;;;3.67;;
68583;SDS011;55557;49.220;11.150;2023-06-14T00:31:17;7.80;;;4.87;;
68583;SDS011;55557;49.220;11.150;2023-06-14T00:33:43;4.27;;;3.70;;
68583;SDS011;55557;49.220;11.150;2023-06-14T00:36:09;5.07;;;3.50;;
68583;SDS011;55557;49.220;11.150;2023-06-14T00:38:35;5.13;;;3.90;;
68583;SDS011;55557;49.220;11.150;2023-06-14T00:41:01;6.60;;;5.10;;
68583;SDS011;55557;49.220;11.150;2023-06-14T00:43:27;5.67;;;4.30;;
68583;SDS011;55557;49.220;11.150;2023-06-14T00:45:53;4.97;;;3.67;;
68583;SDS011;55557;49.220;11.150;2023-06-14T00:48:19;5.23;;;4.07;;
68583;SDS011;55557;49.220;11.150;2023-06-14T00:50:45;4.80;;;4.00;;
68583;SDS011;55557;49.220;11.150;2023-06-14T00:53:13;5.83;;;3.80;;
68583;SDS011;55557;49.220;11.150;2023-06-14T00:55:42;5.00;;;4.07;;
68583;SDS011;55557;49.220;11.150;2023-06-14T00:58:08;5.47;;;4.23;;
68583;SDS011;55557;49.220;11.150;2023-06-14T01:00:34;6.70;;;4.27;;
68583;SDS011;55557;49.220;11.150;2023-06-14T01:03:01;5.47;;;3.90;;
68583;SDS011;55557;49.220;11.150;2023-06-14T01:05:27;5.63;;;4.47;;
68583;SDS011;55557;49.220;11.150;2023-06-14T01:16:02;6.60;;;4.10;;
68583;SDS011;55557;49.220;11.150;2023-06-14T01:18:29;3.83;;;3.43;;
68583;SDS011;55557;49.220;11.150;2023-06-14T01:20:55;5.43;;;4.60;;
68583;SDS011;55557;49.220;11.150;2023-06-14T01:23:22;5.33;;;4.10;;
68583;SDS011;55557;49.220;11.150;2023-06-14T01:25:49;5.47;;;4.00;;
68583;SDS011;55557;49.220;11.150;2023-06-14T01:28:19;8.00;;;4.60;;
68583;SDS011;55557;49.220;11.150;2023-06-14T01:30:50;7.30;;;4.30;;
68583;SDS011;55557;49.220;11.150;2023-06-14T01:33:19;8.73;;;4.40;;
68583;SDS011;55557;49.220;11.150;2023-06-14T01:35:46;7.63;;;4.67;;
68583;SDS011;55557;49.220;11.150;2023-06-14T01:38:13;6.27;;;4.13;;
68583;SDS011;55557;49.220;11.150;2023-06-14T01:40:39;7.60;;;4.20;;
68583;SDS011;55557;49.220;11.150;2023-06-14T01:43:06;9.70;;;4.27;;
68583;SDS011;55557;49.220;11.150;2023-06-14T01:45:32;5.77;;;4.43;;
68583;SDS011;55557;49.220;11.150;2023-06-14T01:47:59;7.27;;;4.33;;
68583;SDS011;55557;49.220;11.150;2023-06-14T01:50:29;4.80;;;3.93;;
68583;SDS011;55557;49.220;11.150;2023-06-14T01:52:55;4.70;;;4.30;;
68583;SDS011;55557;49.220;11.150;2023-06-14T01:55:21;8.00;;;4.67;;
68583;SDS011;55557;49.220;11.150;2023-06-14T01:57:49;7.20;;;4.10;;
68583;SDS011;55557;49.220;11.150;2023-06-14T02:00:18;5.07;;;4.03;;
68583;SDS011;55557;49.220;11.150;2023-06-14T02:02:44;5.33;;;4.43;;
68583;SDS011;55557;49.220;11.150;2023-06-14T02:05:11;8.57;;;4.00;;
68583;SDS011;55557;49.220;11.150;2023-06-14T02:07:37;6.33;;;4.20;;
68583;SDS011;55557;49.220;11.150;2023-06-14T02:10:03;7.20;;;4.00;;
68583;SDS011;55557;49.220;11.150;2023-06-14T02:12:29;6.97;;;4.73;;
68583;SDS011;55557;49.220;11.150;2023-06-14T02:14:55;5.30;;;4.17;;
68583;SDS011;55557;49.220;11.150;2023-06-14T02:17:22;6.50;;;4.70;;
68583;SDS011;55557;49.220;11.150;2023-06-14T02:19:48;5.83;;;4.63;;
68583;SDS011;55557;49.220;11.150;2023-06-14T02:22:15;6.17;;;4.70;;
68583;SDS011;55557;49.220;11.150;2023-06-14T02:24:42;8.40;;;4.23;;
68583;SDS011;55557;49.220;11.150;2023-06-14T02:27:08;5.60;;;3.90;;
68583;SDS011;55557;49.220;11.150;2023-06-14T02:29:37;7.97;;;4.27;;
68583;SDS011;55557;49.220;11.150;2023-06-14T02:32:06;5.67;;;4.50;;
68583;SDS011;55557;49.220;11.150;2023-06-14T02:34:35;5.03;;;4.53;;
68583;SDS011;55557;49.220;11.150;2023-06-14T02:37:01;5.53;;;4.43;;
68583;SDS011;55557;49.220;11.150;2023-06-14T02:39:30;4.80;;;3.70;;
68583;SDS011;55557;49.220;11.150;2023-06-14T02:41:56;6.63;;;5.27;;
68583;SDS011;55557;49.220;11.150;2023-06-14T02:44:25;5.63;;;4.70;;
68583;SDS011;55557;49.220;11.150;2023-06-14T02:46:53;5.23;;;4.50;;
68583;SDS011;55557;49.220;11.150;2023-06-14T02:49:20;6.93;;;4.30;;
68583;SDS011;55557;49.220;11.150;2023-06-14T02:51:46;5.90;;;4.30;;
68583;SDS011;55557;49.220;11.150;2023-06-14T02:54:12;6.20;;;4.57;;
68583;SDS011;55557;49.220;11.150;2023-06-14T02:56:38;5.00;;;4.40;;
68583;SDS011;55557;49.220;11.150;2023-06-14T02:59:04;6.50;;;4.50;;
68583;SDS011;55557;49.220;11.150;2023-06-14T03:01:30;4.77;;;4.20;;
68583;SDS011;55557;49.220;11.150;2023-06-14T03:04:02;7.03;;;4.43;;
68583;SDS011;55557;49.220;11.150;2023-06-14T03:06:30;5.00;;;4.13;;
68583;SDS011;55557;49.220;11.150;2023-06-14T03:08:57;6.40;;;4.53;;
68583;SDS011;55557;49.220;11.150;2023-06-14T03:11:29;6.57;;;4.37;;
68583;SDS011;55557;49.220;11.150;2023-06-14T03:13:55;7.70;;;4.50;;
68583;SDS011;55557;49.220;11.150;2023-06-14T03:16:21;4.30;;;3.80;;
68583;SDS011;55557;49.220;11.150;2023-06-14T03:18:49;6.07;;;4.57;;
68583;SDS011;55557;49.220;11.150;2023-06-14T03:21:15;5.37;;;4.43;;
68583;SDS011;55557;49.220;11.150;2023-06-14T03:23:42;6.40;;;4.53;;
68583;SDS011;55557;49.220;11.150;2023-06-14T03:26:08;6.17;;;4.40;;
68583;SDS011;55557;49.220;11.150;2023-06-14T03:28:34;4.97;;;4.30;;
68583;SDS011;55557;49.220;11.150;2023-06-14T03:31:00;5.93;;;4.50;;
68583;SDS011;55557;49.220;11.150;2023-06-14T03:33:26;5.37;;;4.37;;
68583;SDS011;55557;49.220;11.150;2023-06-14T03:35:52;6.63;;;4.87;;
68583;SDS011;55557;49.220;11.150;2023-06-14T03:38:18;14.13;;;4.90;;
68583;SDS011;55557;49.220;11.150;2023-06-14T03:40:44;8.20;;;4.77;;
68583;SDS011;55557;49.220;11.150;2023-06-14T03:43:10;5.77;;;5.00;;
68583;SDS011;55557;49.220;11.150;2023-06-14T03:45:36;5.47;;;4.57;;
68583;SDS011;55557;49.220;11.150;2023-06-14T03:48:02;6.80;;;4.30;;
68583;SDS011;55557;49.220;11.150;2023-06-14T03:50:28;5.50;;;4.47;;
68583;SDS011;55557;49.220;11.150;2023-06-14T03:52:54;5.73;;;4.13;;
68583;SDS011;55557;49.220;11.150;2023-06-14T03:55:20;7.30;;;4.67;;
68583;SDS011;55557;49.220;11.150;2023-06-14T03:57:50;7.53;;;4.77;;
68583;SDS011;55557;49.220;11.150;2023-06-14T04:00:16;5.90;;;4.73;;
68583;SDS011;55557;49.220;11.150;2023-06-14T04:02:43;8.43;;;4.57;;
68583;SDS011;55557;49.220;11.150;2023-06-14T04:05:12;7.40;;;4.43;;
68583;SDS011;55557;49.220;11.150;2023-06-14T04:07:38;5.00;;;4.10;;
68583;SDS011;55557;49.220;11.150;2023-06-14T04:10:10;6.87;;;4.10;;
68583;SDS011;55557;49.220;11.150;2023-06-14T04:12:36;7.53;;;4.63;;
68583;SDS011;55557;49.220;11.150;2023-06-14T04:15:02;8.17;;;5.00;;
68583;SDS011;55557;49.220;11.150;2023-06-14T04:17:28;6.80;;;4.47;;
68583;SDS011;55557;49.220;11.150;2023-06-14T04:19:54;6.43;;;5.03;;
68583;SDS011;55557;49.220;11.150;2023-06-14T04:22:23;5.73;;;5.10;;
68583;SDS011;55557;49.220;11.150;2023-06-14T04:24:49;6.97;;;5.13;;
68583;SDS011;55557;49.220;11.150;2023-06-14T04:27:17;8.87;;;4.80;;
68583;SDS011;55557;49.220;11.150;2023-06-14T04:29:48;5.40;;;4.60;;
68583;SDS011;55557;49.220;11.150;2023-06-14T04:32:22;5.63;;;4.60;;
68583;SDS011;55557;49.220;11.150;2023-06-14T04:34:51;6.03;;;4.50;;
68583;SDS011;55557;49.220;11.150;2023-06-14T04:37:18;7.70;;;4.60;;
68583;SDS011;55557;49.220;11.150;2023-06-14T04:39:46;6.37;;;4.90;;
68583;SDS011;55557;49.220;11.150;2023-06-14T04:42:12;7.60;;;5.10;;
68583;SDS011;55557;49.220;11.150;2023-06-14T04:44:39;8.07;;;4.90;;
68583;SDS011;55557;49.220;11.150;2023-06-14T04:47:05;6.83;;;5.60;;
68583;SDS011;55557;49.220;11.150;2023-06-14T04:49:32;5.20;;;4.57;;
68583;SDS011;55557;49.220;11.150;2023-06-14T04:51:59;8.60;;;5.63;;
68583;SDS011;55557;49.220;11.150;2023-06-14T04:54:26;6.73;;;4.73;;
68583;SDS011;55557;49.220;11.150;2023-06-14T04:56:53;7.60;;;4.77;;
68583;SDS011;55557;49.220;11.150;2023-06-14T04:59:20;4.87;;;4.23;;
68583;SDS011;55557;49.220;11.150;2023-06-14T05:01:48;6.73;;;4.80;;
68583;SDS011;55557;49.220;11.150;2023-06-14T05:04:15;6.37;;;5.00;;
68583;SDS011;55557;49.220;11.150;2023-06-14T05:06:42;8.67;;;5.40;;
68583;SDS011;55557;49.220;11.150;2023-06-14T05:09:10;10.47;;;5.07;;
68583;SDS011;55557;49.220;11.150;2023-06-14T05:11:36;6.37;;;5.07;;
68583;SDS011;55557;49.220;11.150;2023-06-14T05:14:02;5.87;;;4.57;;
68583;SDS011;55557;49.220;11.150;2023-06-14T05:16:28;8.17;;;4.73;;
68583;SDS011;55557;49.220;11.150;2023-06-14T05:18:54;7.37;;;4.17;;
68583;SDS011;55557;49.220;11.150;2023-06-14T05:21:20;12.07;;;4.97;;
68583;SDS011;55557;49.220;11.150;2023-06-14T05:23:46;7.47;;;4.93;;
68583;SDS011;55557;49.220;11.150;2023-06-14T05:26:13;6.93;;;4.23;;
68583;SDS011;55557;49.220;11.150;2023-06-14T05:28:39;7.57;;;4.37;;
68583;SDS011;55557;49.220;11.150;2023-06-14T05:31:05;8.77;;;3.97;;
68583;SDS011;55557;49.220;11.150;2023-06-14T05:33:31;5.90;;;4.27;;
68583;SDS011;55557;49.220;11.150;2023-06-14T05:35:57;5.63;;;4.10;;
68583;SDS011;55557;49.220;11.150;2023-06-14T05:38:23;6.20;;;4.47;;
68583;SDS011;55557;49.220;11.150;2023-06-14T05:40:50;8.10;;;4.70;;
68583;SDS011;55557;49.220;11.150;2023-06-14T05:43:16;5.27;;;4.43;;
68583;SDS011;55557;49.220;11.150;2023-06-14T05:45:42;7.03;;;4.53;;
68583;SDS011;55557;49.220;11.150;2023-06-14T05:48:20;8.40;;;4.70;;
68583;SDS011;55557;49.220;11.150;2023-06-14T05:50:46;10.87;;;4.20;;
68583;SDS011;55557;49.220;11.150;2023-06-14T05:53:12;8.10;;;4.10;;
68583;SDS011;55557;49.220;11.150;2023-06-14T05:55:40;8.50;;;4.10;;
68583;SDS011;55557;49.220;11.150;2023-06-14T05:58:06;5.40;;;4.30;;
68583;SDS011;55557;49.220;11.150;2023-06-14T06:00:32;9.37;;;4.10;;
68583;SDS011;55557;49.220;11.150;2023-06-14T06:02:58;11.47;;;3.93;;
68583;SDS011;55557;49.220;11.150;2023-06-14T06:05:25;4.83;;;3.97;;
68583;SDS011;55557;49.220;11.150;2023-06-14T06:07:51;4.90;;;3.70;;
68583;SDS011;55557;49.220;11.150;2023-06-14T06:10:17;7.40;;;4.60;;
68583;SDS011;55557;49.220;11.150;2023-06-14T06:12:43;6.53;;;3.97;;
68583;SDS011;55557;49.220;11.150;2023-06-14T06:15:09;7.37;;;3.83;;
68583;SDS011;55557;49.220;11.150;2023-06-14T06:17:39;6.60;;;3.63;;
68583;SDS011;55557;49.220;11.150;2023-06-14T06:20:05;8.37;;;4.27;;
68583;SDS011;55557;49.220;11.150;2023-06-14T06:22:33;5.32;;;4.03;;
68583;SDS011;55557;49.220;11.150;2023-06-14T06:24:59;6.80;;;4.20;;
68583;SDS011;55557;49.220;11.150;2023-06-14T06:27:25;7.50;;;4.10;;
68583;SDS011;55557;49.220;11.150;2023-06-14T06:29:52;5.13;;;3.87;;
68583;SDS011;55557;49.220;11.150;2023-06-14T06:32:18;9.13;;;3.47;;
68583;SDS011;55557;49.220;11.150;2023-06-14T06:34:44;6.37;;;3.70;;
68583;SDS011;55557;49.220;11.150;2023-06-14T06:37:10;8.20;;;4.40;;
68583;SDS011;55557;49.220;11.150;2023-06-14T06:39:36;8.00;;;3.50;;
68583;SDS011;55557;49.220;11.150;2023-06-14T06:42:02;5.60;;;3.60;;
68583;SDS011;55557;49.220;11.150;2023-06-14T06:44:28;6.80;;;4.00;;
68583;SDS011;55557;49.220;11.150;2023-06-14T06:47:00;3.57;;;3.23;;
68583;SDS011;55557;49.220;11.150;2023-06-14T06:49:27;6.63;;;3.37;;
68583;SDS011;55557;49.220;11.150;2023-06-14T06:54:45;3.90;;;2.83;;
68583;SDS011;55557;49.220;11.150;2023-06-14T06:57:11;4.63;;;2.93;;
68583;SDS011;55557;49.220;11.150;2023-06-14T06:59:37;3.17;;;2.80;;
68583;SDS011;55557;49.220;11.150;2023-06-14T07:02:03;7.47;;;3.20;;
68583;SDS011;55557;49.220;11.150;2023-06-14T07:04:30;4.53;;;2.97;;
68583;SDS011;55557;49.220;11.150;2023-06-14T07:06:56;5.13;;;3.10;;
68583;SDS011;55557;49.220;11.150;2023-06-14T07:09:22;3.80;;;2.80;;
68583;SDS011;55557;49.220;11.150;2023-06-14T07:11:49;3.57;;;3.13;;
68583;SDS011;55557;49.220;11.150;2023-06-14T07:14:15;3.10;;;2.60;;
68583;SDS011;55557;49.220;11.150;2023-06-14T07:16:41;5.47;;;3.10;;
68583;SDS011;55557;49.220;11.150;2023-06-14T07:19:08;4.90;;;2.67;;
68583;SDS011;55557;49.220;11.150;2023-06-14T07:21:35;4.27;;;3.30;;
68583;SDS011;55557;49.220;11.150;2023-06-14T07:24:03;3.90;;;3.00;;
68583;SDS011;55557;49.220;11.150;2023-06-14T07:26:29;3.87;;;2.80;;
68583;SDS011;55557;49.220;11.150;2023-06-14T07:28:55;5.30;;;3.23;;
68583;SDS011;55557;49.220;11.150;2023-06-14T07:31:22;4.43;;;2.70;;
68583;SDS011;55557;49.220;11.150;2023-06-14T07:33:48;5.10;;;2.80;;
68583;SDS011;55557;49.220;11.150;2023-06-14T07:36:13;3.17;;;2.80;;
68583;SDS011;55557;49.220;11.150;2023-06-14T07:38:40;3.87;;;2.67;;
68583;SDS011;55557;49.220;11.150;2023-06-14T07:41:06;4.50;;;2.80;;
68583;SDS011;55557;49.220;11.150;2023-06-14T07:43:32;3.17;;;2.53;;
68583;SDS011;55557;49.220;11.150;2023-06-14T07:45:58;10.27;;;2.70;;
68583;SDS011;55557;49.220;11.150;2023-06-14T07:48:24;3.77;;;2.80;;
68583;SDS011;55557;49.220;11.150;2023-06-14T07:50:50;3.37;;;2.47;;
68583;SDS011;55557;49.220;11.150;2023-06-14T07:53:16;7.13;;;2.83;;
68583;SDS011;55557;49.220;11.150;2023-06-14T07:55:48;5.70;;;3.33;;
68583;SDS011;55557;49.220;11.150;2023-06-14T07:58:17;5.90;;;3.00;;
68583;SDS011;55557;49.220;11.150;2023-06-14T08:00:43;3.10;;;2.37;;
68583;SDS011;55557;49.220;11.150;2023-06-14T08:03:09;7.17;;;2.53;;
68583;SDS011;55557;49.220;11.150;2023-06-14T08:05:35;6.00;;;2.93;;
68583;SDS011;55557;49.220;11.150;2023-06-14T08:08:11;6.97;;;3.17;;
68583;SDS011;55557;49.220;11.150;2023-06-14T08:10:37;4.47;;;2.60;;
68583;SDS011;55557;49.220;11.150;2023-06-14T08:13:05;3.97;;;3.10;;
68583;SDS011;55557;49.220;11.150;2023-06-14T08:15:32;4.23;;;2.73;;
68583;SDS011;55557;49.220;11.150;2023-06-14T08:20:37;3.30;;;2.80;;
68583;SDS011;55557;49.220;11.150;2023-06-14T08:23:03;3.87;;;2.97;;
68583;SDS011;55557;49.220;11.150;2023-06-14T08:25:29;5.30;;;2.70;;
68583;SDS011;55557;49.220;11.150;2023-06-14T08:27:56;8.10;;;2.93;;
68583;SDS011;55557;49.220;11.150;2023-06-14T08:30:22;3.93;;;2.83;;
68583;SDS011;55557;49.220;11.150;2023-06-14T08:32:48;3.50;;;2.40;;
68583;SDS011;55557;49.220;11.150;2023-06-14T08:35:14;5.57;;;2.70;;
68583;SDS011;55557;49.220;11.150;2023-06-14T08:37:41;4.53;;;2.53;;
68583;SDS011;55557;49.220;11.150;2023-06-14T08:40:21;7.67;;;2.53;;
68583;SDS011;55557;49.220;11.150;2023-06-14T08:42:56;5.10;;;2.83;;
68583;SDS011;55557;49.220;11.150;2023-06-14T08:45:23;4.17;;;2.43;;
68583;SDS011;55557;49.220;11.150;2023-06-14T08:47:53;2.23;;;2.00;;
68583;SDS011;55557;49.220;11.150;2023-06-14T08:50:22;3.00;;;2.43;;
68583;SDS011;55557;49.220;11.150;2023-06-14T08:52:53;4.43;;;2.80;;
68583;SDS011;55557;49.220;11.150;2023-06-14T08:55:20;4.37;;;2.50;;
68583;SDS011;55557;49.220;11.150;2023-06-14T08:57:50;4.73;;;2.60;;
68583;SDS011;55557;49.220;11.150;2023-06-14T09:00:17;10.23;;;3.27;;
68583;SDS011;55557;49.220;11.150;2023-06-14T09:02:45;4.40;;;2.70;;
68583;SDS011;55557;49.220;11.150;2023-06-14T09:05:12;9.07;;;2.77;;
68583;SDS011;55557;49.220;11.150;2023-06-14T09:07:43;3.53;;;2.40;;
68583;SDS011;55557;49.220;11.150;2023-06-14T09:10:10;5.17;;;2.50;;
68583;SDS011;55557;49.220;11.150;2023-06-14T09:12:36;4.33;;;2.80;;
68583;SDS011;55557;49.220;11.150;2023-06-14T09:15:03;4.57;;;2.20;;
68583;SDS011;55557;49.220;11.150;2023-06-14T09:17:34;3.87;;;2.40;;
68583;SDS011;55557;49.220;11.150;2023-06-14T09:20:02;6.90;;;2.40;;
68583;SDS011;55557;49.220;11.150;2023-06-14T09:22:31;4.10;;;2.30;;
68583;SDS011;55557;49.220;11.150;2023-06-14T09:25:00;5.23;;;2.73;;
68583;SDS011;55557;49.220;11.150;2023-06-14T09:27:26;5.30;;;2.43;;
68583;SDS011;55557;49.220;11.150;2023-06-14T09:29:52;6.90;;;2.60;;
68583;SDS011;55557;49.220;11.150;2023-06-14T09:32:18;5.97;;;2.33;;
68583;SDS011;55557;49.220;11.150;2023-06-14T09:34:45;3.37;;;2.70;;
68583;SDS011;55557;49.220;11.150;2023-06-14T09:37:11;5.93;;;2.20;;
68583;SDS011;55557;49.220;11.150;2023-06-14T09:39:50;3.70;;;2.10;;
68583;SDS011;55557;49.220;11.150;2023-06-14T09:42:16;3.67;;;2.23;;
68583;SDS011;55557;49.220;11.150;2023-06-14T09:44:48;5.93;;;2.43;;
68583;SDS011;55557;49.220;11.150;2023-06-14T09:47:15;2.57;;;2.27;;
68583;SDS011;55557;49.220;11.150;2023-06-14T09:49:42;2.67;;;2.23;;
68583;SDS011;55557;49.220;11.150;2023-06-14T09:52:18;6.70;;;2.63;;
68583;SDS011;55557;49.220;11.150;2023-06-14T09:54:44;6.40;;;2.47;;
68583;SDS011;55557;49.220;11.150;2023-06-14T09:57:12;5.93;;;2.20;;
68583;SDS011;55557;49.220;11.150;2023-06-14T09:59:42;3.40;;;2.10;;
68583;SDS011;55557;49.220;11.150;2023-06-14T10:02:11;4.27;;;2.03;;
68583;SDS011;55557;49.220;11.150;2023-06-14T10:04:39;3.83;;;2.37;;
68583;SDS011;55557;49.220;11.150;2023-06-14T10:07:06;4.07;;;2.90;;
68583;SDS011;55557;49.220;11.150;2023-06-14T10:09:33;4.10;;;2.80;;
68583;SDS011;55557;49.220;11.150;2023-06-14T10:12:00;4.60;;;2.60;;
68583;SDS011;55557;49.220;11.150;2023-06-14T10:14:26;3.33;;;2.60;;
68583;SDS011;55557;49.220;11.150;2023-06-14T10:19:34;3.23;;;2.60;;
68583;SDS011;55557;49.220;11.150;2023-06-14T10:22:08;4.93;;;2.63;;
68583;SDS011;55557;49.220;11.150;2023-06-14T10:24:44;4.03;;;2.80;;
68583;SDS011;55557;49.220;11.150;2023-06-14T10:27:14;6.33;;;2.57;;
68583;SDS011;55557;49.220;11.150;2023-06-14T10:32:18;3.07;;;2.60;;
68583;SDS011;55557;49.220;11.150;2023-06-14T10:34:44;3.63;;;2.93;;
68583;SDS011;55557;49.220;11.150;2023-06-14T10:37:11;6.80;;;2.40;;
68583;SDS011;55557;49.220;11.150;2023-06-14T10:39:39;4.93;;;2.93;;
68583;SDS011;55557;49.220;11.150;2023-06-14T10:42:10;5.57;;;2.57;;
68583;SDS011;55557;49.220;11.150;2023-06-14T10:47:06;8.00;;;2.67;;
68583;SDS011;55557;49.220;11.150;2023-06-14T10:49:41;3.50;;;2.63;;
68583;SDS011;55557;49.220;11.150;2023-06-14T10:52:08;4.40;;;3.27;;
68583;SDS011;55557;49.220;11.150;2023-06-14T10:57:31;3.60;;;2.47;;
68583;SDS011;55557;49.220;11.150;2023-06-14T10:59:58;5.00;;;3.03;;
68583;SDS011;55557;49.220;11.150;2023-06-14T11:02:40;4.17;;;2.43;;
68583;SDS011;55557;49.220;11.150;2023-06-14T11:05:14;3.53;;;2.63;;
68583;SDS011;55557;49.220;11.150;2023-06-14T11:10:36;9.50;;;2.60;;
68583;SDS011;55557;49.220;11.150;2023-06-14T11:13:03;3.37;;;2.77;;
68583;SDS011;55557;49.220;11.150;2023-06-14T11:15:29;3.67;;;2.77;;
68583;SDS011;55557;49.220;11.150;2023-06-14T11:17:56;3.63;;;2.57;;
68583;SDS011;55557;49.220;11.150;2023-06-14T11:20:26;4.53;;;2.53;;
68583;SDS011;55557;49.220;11.150;2023-06-14T11:22:52;3.80;;;2.90;;
68583;SDS011;55557;49.220;11.150;2023-06-14T11:25:19;10.00;;;2.77;;
68583;SDS011;55557;49.220;11.150;2023-06-14T11:27:45;10.53;;;3.33;;
68583;SDS011;55557;49.220;11.150;2023-06-14T11:30:13;8.70;;;2.97;;
68583;SDS011;55557;49.220;11.150;2023-06-14T11:32:40;4.33;;;2.80;;
68583;SDS011;55557;49.220;11.150;2023-06-14T11:35:06;4.10;;;2.83;;
68583;SDS011;55557;49.220;11.150;2023-06-14T11:37:32;3.20;;;2.43;;
68583;SDS011;55557;49.220;11.150;2023-06-14T11:39:59;4.00;;;2.80;;
68583;SDS011;55557;49.220;11.150;2023-06-14T11:42:28;4.97;;;2.40;;
68583;SDS011;55557;49.220;11.150;2023-06-14T11:44:55;4.80;;;2.77;;
68583;SDS011;55557;49.220;11.150;2023-06-14T11:47:21;3.77;;;2.70;;
68583;SDS011;55557;49.220;11.150;2023-06-14T11:49:48;3.53;;;2.50;;
68583;SDS011;55557;49.220;11.150;2023-06-14T11:52:14;7.83;;;3.10;;
68583;SDS011;55557;49.220;11.150;2023-06-14T11:54:40;3.97;;;2.97;;
68583;SDS011;55557;49.220;11.150;2023-06-14T11:57:07;7.47;;;2.77;;
68583;SDS011;55557;49.220;11.150;2023-06-14T11:59:39;4.37;;;2.60;;
68583;SDS011;55557;49.220;11.150;2023-06-14T12:02:06;3.50;;;2.70;;
68583;SDS011;55557;49.220;11.150;2023-06-14T12:04:32;3.00;;;2.50;;
68583;SDS011;55557;49.220;11.150;2023-06-14T12:09:40;6.67;;;2.77;;
68583;SDS011;55557;49.220;11.150;2023-06-14T12:12:09;5.07;;;2.40;;
68583;SDS011;55557;49.220;11.150;2023-06-14T12:14:35;2.50;;;2.30;;
68583;SDS011;55557;49.220;11.150;2023-06-14T12:17:07;7.00;;;2.27;;
68583;SDS011;55557;49.220;11.150;2023-06-14T12:19:41;4.97;;;2.70;;
68583;SDS011;55557;49.220;11.150;2023-06-14T12:22:08;4.10;;;2.40;;
68583;SDS011;55557;49.220;11.150;2023-06-14T12:24:35;4.53;;;2.33;;
68583;SDS011;55557;49.220;11.150;2023-06-14T12:27:01;5.43;;;2.07;;
68583;SDS011;55557;49.220;11.150;2023-06-14T12:29:32;3.80;;;2.87;;
68583;SDS011;55557;49.220;11.150;2023-06-14T12:32:01;4.97;;;2.83;;
68583;SDS011;55557;49.220;11.150;2023-06-14T12:34:27;5.20;;;3.27;;
68583;SDS011;55557;49.220;11.150;2023-06-14T12:36:53;8.90;;;2.90;;
68583;SDS011;55557;49.220;11.150;2023-06-14T12:39:20;7.47;;;2.93;;
68583;SDS011;55557;49.220;11.150;2023-06-14T12:41:47;3.40;;;2.40;;
68583;SDS011;55557;49.220;11.150;2023-06-14T12:44:13;4.17;;;2.67;;
68583;SDS011;55557;49.220;11.150;2023-06-14T12:46:40;7.73;;;2.70;;
68583;SDS011;55557;49.220;11.150;2023-06-14T12:49:08;5.50;;;2.30;;
68583;SDS011;55557;49.220;11.150;2023-06-14T12:51:34;2.73;;;2.50;;
68583;SDS011;55557;49.220;11.150;2023-06-14T12:54:00;6.20;;;2.30;;
68583;SDS011;55557;49.220;11.150;2023-06-14T12:56:26;3.47;;;2.50;;
68583;SDS011;55557;49.220;11.150;2023-06-14T12:58:52;7.43;;;2.47;;
68583;SDS011;55557;49.220;11.150;2023-06-14T13:01:18;6.63;;;2.67;;
68583;SDS011;55557;49.220;11.150;2023-06-14T13:03:45;6.07;;;2.60;;
68583;SDS011;55557;49.220;11.150;2023-06-14T13:06:11;5.30;;;2.90;;
68583;SDS011;55557;49.220;11.150;2023-06-14T13:08:37;4.27;;;2.40;;
68583;SDS011;55557;49.220;11.150;2023-06-14T13:11:03;10.87;;;3.00;;
68583;SDS011;55557;49.220;11.150;2023-06-14T13:13:29;5.87;;;2.77;;
68583;SDS011;55557;49.220;11.150;2023-06-14T13:15:55;5.60;;;2.60;;
68583;SDS011;55557;49.220;11.150;2023-06-14T13:18:21;3.03;;;2.57;;
68583;SDS011;55557;49.220;11.150;2023-06-14T13:20:48;3.67;;;2.70;;
68583;SDS011;55557;49.220;11.150;2023-06-14T13:23:15;5.67;;;2.40;;
68583;SDS011;55557;49.220;11.150;2023-06-14T13:25:41;4.77;;;2.83;;
68583;SDS011;55557;49.220;11.150;2023-06-14T13:28:07;4.07;;;2.97;;
68583;SDS011;55557;49.220;11.150;2023-06-14T13:30:33;3.80;;;2.60;;
68583;SDS011;55557;49.220;11.150;2023-06-14T13:32:59;2.97;;;2.50;;
68583;SDS011;55557;49.220;11.150;2023-06-14T13:35:25;3.97;;;2.57;;
68583;SDS011;55557;49.220;11.150;2023-06-14T13:37:52;4.20;;;2.67;;
68583;SDS011;55557;49.220;11.150;2023-06-14T13:40:18;4.10;;;2.60;;
68583;SDS011;55557;49.220;11.150;2023-06-14T13:42:45;3.47;;;2.47;;
68583;SDS011;55557;49.220;11.150;2023-06-14T13:45:15;4.57;;;2.70;;
68583;SDS011;55557;49.220;11.150;2023-06-14T13:47:41;4.53;;;2.50;;
68583;SDS011;55557;49.220;11.150;2023-06-14T13:50:09;4.83;;;2.80;;
68583;SDS011;55557;49.220;11.150;2023-06-14T13:52:35;3.47;;;2.60;;
68583;SDS011;55557;49.220;11.150;2023-06-14T13:55:02;5.97;;;2.60;;
68583;SDS011;55557;49.220;11.150;2023-06-14T13:57:28;3.73;;;2.83;;
68583;SDS011;55557;49.220;11.150;2023-06-14T13:59:54;3.70;;;2.53;;
68583;SDS011;55557;49.220;11.150;2023-06-14T14:02:25;5.00;;;2.50;;
68583;SDS011;55557;49.220;11.150;2023-06-14T14:04:51;6.10;;;2.70;;
68583;SDS011;55557;49.220;11.150;2023-06-14T14:07:18;7.83;;;2.30;;
68583;SDS011;55557;49.220;11.150;2023-06-14T14:09:45;2.63;;;2.43;;
68583;SDS011;55557;49.220;11.150;2023-06-14T14:12:12;3.93;;;2.50;;
68583;SDS011;55557;49.220;11.150;2023-06-14T14:14:39;2.70;;;2.30;;
68583;SDS011;55557;49.220;11.150;2023-06-14T14:17:05;5.13;;;2.30;;
68583;SDS011;55557;49.220;11.150;2023-06-14T14:19:31;2.87;;;2.40;;
68583;SDS011;55557;49.220;11.150;2023-06-14T14:21:57;2.40;;;2.20;;
68583;SDS011;55557;49.220;11.150;2023-06-14T14:24:23;2.83;;;2.30;;
68583;SDS011;55557;49.220;11.150;2023-06-14T14:26:50;7.63;;;2.60;;
68583;SDS011;55557;49.220;11.150;2023-06-14T14:29:18;2.40;;;2.13;;
68583;SDS011;55557;49.220;11.150;2023-06-14T14:31:44;7.33;;;2.60;;
68583;SDS011;55557;49.220;11.150;2023-06-14T14:34:10;7.03;;;2.67;;
68583;SDS011;55557;49.220;11.150;2023-06-14T14:36:36;4.17;;;2.23;;
68583;SDS011;55557;49.220;11.150;2023-06-14T14:39:06;5.40;;;2.40;;
68583;SDS011;55557;49.220;11.150;2023-06-14T14:41:32;3.20;;;2.57;;
68583;SDS011;55557;49.220;11.150;2023-06-14T14:43:58;4.47;;;2.30;;
68583;SDS011;55557;49.220;11.150;2023-06-14T14:46:25;2.97;;;2.43;;
68583;SDS011;55557;49.220;11.150;2023-06-14T14:48:51;2.50;;;2.27;;
68583;SDS011;55557;49.220;11.150;2023-06-14T14:51:17;3.77;;;2.80;;
68583;SDS011;55557;49.220;11.150;2023-06-14T14:53:43;3.23;;;2.53;;
68583;SDS011;55557;49.220;11.150;2023-06-14T14:56:09;4.83;;;2.60;;
68583;SDS011;55557;49.220;11.150;2023-06-14T14:58:37;2.87;;;2.47;;
68583;SDS011;55557;49.220;11.150;2023-06-14T15:01:03;2.63;;;2.27;;
68583;SDS011;55557;49.220;11.150;2023-06-14T15:03:30;4.43;;;2.47;;